Red Wing, Minnesota
Current Conditions -  °F | °C
As of 12:31 PM on Thursday 29 Jan 2015 (Local Time) from KRGK Reporting Station
Overcast Overcast  
Wind Chill: -4°   Ceiling: 2700
Heat Index:   Visibility: 10mi
Dew Point: -5°   Wind: 14mph
Humidity: 65%   Direction: 320°NW
Pressure: 30.19"   Gusts: 22mph
Location:  44.57°N, 92.53°W
Report Text: KRGK 291831Z AUTO 32012G19KT 10SM BKN027 BKN034 OVC047 01/M05 A3019 RMK AO2
Loading
Personal Weather Stations






























Interactive Weather Map New forecast layout! Learn more

10-Day Weather Forecast

Advertisements
Track Severe Weather on mobile